East Orwell, Ohio
Current Conditions -  °F | °C
As of 4:53 AM on Saturday 22 Nov 2014 (Local Time) from KHZY Reporting Station
Clear Clear  
Wind Chill:   Ceiling: Unl
Heat Index: 19°   Visibility: 10mi
Dew Point:   Wind: 9mph
Humidity: 62%   Direction: 170°S
Pressure: 30.29"   Gusts: NA
Location:  41.5284°N, 80.8237°W
Report Text: KHZY 220953Z AUTO 17008KT 10SM CLR M07/M13 A3029 RMK AO2 SLP273 T10721133
Loading
Personal Weather Stations






























Interactive Weather Map New forecast layout! Learn more

10-Day Weather Forecast

Advertisements
Track Severe Weather on mobile